Aviation Digital Data Service (ADDS)

Output produced by METARs form (1411 UTC 08 May 2021)
found at http://aviationweather.gov/metar/data/
 
KLFK 081353Z AUTO 18008KT 10SM CLR 21/18 A3002 RMK AO2 SLP164 T02110183
KLFK 081120Z 0812/0912 15005KT P6SM SKC 
     FM081600 17017G26KT P6SM FEW250 
     FM090400 15018G24KT P6SM OVC025 
     FM091000 18013G19KT P6SM OVC015